Time;durP1;ratioP1;P1;durP2;ratioP2;P2;SDS_P1;SDS_P2;PMS_P1;PMS_P2;Temp;Humidity;BMP_temperature;BMP_pressure;BME280_temperature;BME280_humidity;BME280_pressure;Samples;Min_cycle;Max_cycle;Signal;HPM_P1;HPM_P2
2022/09/24 00:00:32;;;;;;;8.60;6.90;;;13.50;98.30;;;;;;5051596;28;20434;-47
2022/09/24 00:02:58;;;;;;;9.00;7.40;;;13.60;98.30;;;;;;5051604;28;20475;-47
2022/09/24 00:05:26;;;;;;;9.70;8.10;;;13.30;98.50;;;;;;5051795;28;20424;-48
2022/09/24 00:07:53;;;;;;;8.27;7.47;;;13.40;98.50;;;;;;5051987;28;20457;-47
2022/09/24 00:10:20;;;;;;;12.10;6.70;;;13.60;98.60;;;;;;5051141;28;20462;-48
2022/09/24 00:12:47;;;;;;;7.60;6.90;;;13.50;98.70;;;;;;5051996;28;20509;-47
2022/09/24 00:15:13;;;;;;;13.47;7.70;;;13.50;98.60;;;;;;5033722;28;20511;-47
2022/09/24 00:17:40;;;;;;;9.17;8.27;;;13.10;98.50;;;;;;5051524;28;20459;-47
2022/09/24 00:20:07;;;;;;;8.10;7.30;;;13.70;99.10;;;;;;5051123;28;20438;-47
2022/09/24 00:22:36;;;;;;;8.07;7.00;;;13.60;99.10;;;;;;5051824;28;20473;-47
2022/09/24 00:27:55;;;;;;;9.63;7.90;;;13.60;99.30;;;;;;5015793;28;20455;-47
2022/09/24 00:30:22;;;;;;;8.73;7.93;;;13.40;99.40;;;;;;5051254;28;20460;-48
2022/09/24 00:32:48;;;;;;;8.47;7.70;;;13.10;99.40;;;;;;5051433;28;20428;-46
2022/09/24 00:35:15;;;;;;;12.43;7.50;;;13.20;99.50;;;;;;5051613;28;20434;-47
2022/09/24 00:37:43;;;;;;;7.37;6.53;;;12.70;99.50;;;;;;5051853;28;20433;-48
2022/09/24 00:40:10;;;;;;;9.30;7.80;;;13.10;99.80;;;;;;5051364;28;20941;-48
2022/09/24 00:42:37;;;;;;;10.10;8.60;;;13.30;99.90;;;;;;5051532;28;20477;-45
2022/09/24 00:45:04;;;;;;;10.40;7.60;;;13.00;99.90;;;;;;5051630;28;20434;-47
2022/09/24 00:47:39;;;;;;;8.40;7.60;;;13.00;99.90;;;;;;5051892;28;20466;-47
2022/09/24 00:50:17;;;;;;;12.13;7.90;;;13.20;99.90;;;;;;5051148;28;20441;-47
2022/09/24 00:52:49;;;;;;;8.60;7.30;;;13.10;99.90;;;;;;5051640;28;20844;-47
2022/09/24 00:55:18;;;;;;;7.90;6.77;;;13.10;99.90;;;;;;5051513;28;20548;-46
2022/09/24 00:57:46;;;;;;;9.17;7.50;;;13.00;99.90;;;;;;5033819;28;20581;-47
2022/09/24 01:00:14;;;;;;;8.20;7.40;;;13.30;99.90;;;;;;5050985;28;20443;-47
2022/09/24 01:02:45;;;;;;;8.30;7.43;;;12.90;99.90;;;;;;5051407;28;20494;-48
2022/09/24 01:05:11;;;;;;;7.80;7.00;;;13.40;99.90;;;;;;5051613;28;20524;-47
2022/09/24 01:07:38;;;;;;;8.77;7.87;;;12.90;99.90;;;;;;5050318;28;20445;-47
2022/09/24 01:10:06;;;;;;;9.10;8.13;;;12.80;99.90;;;;;;5051048;28;20436;-48
2022/09/24 01:12:44;;;;;;;8.87;7.87;;;12.80;99.90;;;;;;5051869;28;20895;-47
2022/09/24 01:15:22;;;;;;;9.33;7.60;;;12.80;99.90;;;;;;5051381;28;20924;-49
2022/09/24 01:17:58;;;;;;;8.73;7.80;;;12.80;99.90;;;;;;5051263;28;20452;-48
2022/09/24 01:20:46;;;;;;;8.93;6.90;;;12.60;99.90;;;;;;5050718;28;20471;-47
2022/09/24 01:23:34;;;;;;;7.83;7.03;;;12.90;99.90;;;;;;5054874;28;20458;-47
2022/09/24 01:26:18;;;;;;;8.17;7.37;;;13.30;99.90;;;;;;5054951;28;20403;-47
2022/09/24 01:28:56;;;;;;;7.70;6.90;;;13.40;99.90;;;;;;5054565;28;20654;-47
2022/09/24 01:31:29;;;;;;;9.67;8.67;;;12.30;99.90;;;;;;5054939;28;20464;-47
2022/09/24 01:33:59;;;;;;;9.30;7.60;;;12.90;99.90;;;;;;5054889;28;20433;-48
2022/09/24 01:36:28;;;;;;;9.60;7.43;;;12.90;99.90;;;;;;5054977;28;20431;-47
2022/09/24 01:38:57;;;;;;;8.73;7.50;;;12.90;99.90;;;;;;5054493;28;20441;-47
2022/09/24 01:41:24;;;;;;;9.20;8.30;;;12.90;99.90;;;;;;5054724;28;20458;-47
2022/09/24 01:43:51;;;;;;;8.87;8.07;;;12.50;99.90;;;;;;5055029;28;20492;-48
2022/09/24 01:46:19;;;;;;;14.10;8.40;;;13.40;99.90;;;;;;5055071;28;20448;-48
2022/09/24 01:48:47;;;;;;;9.87;6.90;;;13.00;99.90;;;;;;5054155;28;20447;-48
2022/09/24 01:55:05;;;;;;;9.73;7.87;;;13.10;99.90;;;;;;5054887;28;20394;-49
2022/09/24 01:57:35;;;;;;;8.47;6.90;;;12.90;99.90;;;;;;5054553;28;20438;-48
2022/09/24 02:00:08;;;;;;;9.80;8.43;;;13.10;99.90;;;;;;5053869;28;20439;-48
2022/09/24 02:02:44;;;;;;;8.33;7.53;;;13.10;99.90;;;;;;5054037;28;20517;-47
2022/09/24 02:05:22;;;;;;;8.73;7.83;;;12.90;99.90;;;;;;5054251;28;20429;-47
2022/09/24 02:07:56;;;;;;;8.47;7.63;;;13.40;99.90;;;;;;5054319;28;20455;-48
2022/09/24 02:10:22;;;;;;;9.20;8.30;;;12.90;99.90;;;;;;5053809;28;20550;-47
2022/09/24 02:12:54;;;;;;;8.90;6.97;;;13.10;99.90;;;;;;5054307;28;20442;-47
2022/09/24 02:15:26;;;;;;;8.40;7.57;;;13.10;99.90;;;;;;5054230;28;20533;-47
2022/09/24 02:17:56;;;;;;;8.20;7.40;;;12.70;99.90;;;;;;5054187;28;20434;-47
2022/09/24 02:20:27;;;;;;;10.13;7.27;;;13.30;99.90;;;;;;5053429;28;20971;-47
2022/09/24 02:22:56;;;;;;;8.83;7.43;;;13.00;99.90;;;;;;5054234;28;20472;-47
2022/09/24 02:25:29;;;;;;;8.80;8.00;;;13.30;99.90;;;;;;5054178;28;20812;-48
2022/09/24 02:27:56;;;;;;;10.47;7.37;;;13.20;99.90;;;;;;5054373;28;20486;-47
2022/09/24 02:30:22;;;;;;;7.50;6.90;;;13.10;99.90;;;;;;5054000;28;20461;-48
2022/09/24 02:32:50;;;;;;;9.20;7.17;;;13.20;99.90;;;;;;5053376;28;20444;-48
2022/09/24 02:35:16;;;;;;;9.03;7.97;;;13.00;99.90;;;;;;5054252;28;20434;-48
2022/09/24 02:37:46;;;;;;;9.23;7.37;;;13.60;99.90;;;;;;5054176;28;20435;-47
2022/09/24 02:40:14;;;;;;;8.33;6.93;;;13.20;99.90;;;;;;5053676;28;20444;-48
2022/09/24 02:42:42;;;;;;;7.87;7.10;;;13.60;99.90;;;;;;5054206;28;20905;-49
2022/09/24 02:45:10;;;;;;;7.10;6.40;;;13.20;99.90;;;;;;5053891;28;20516;-46
2022/09/24 02:47:37;;;;;;;7.80;7.10;;;13.10;99.90;;;;;;5053755;28;20421;-48
2022/09/24 02:50:04;;;;;;;8.50;7.00;;;13.00;99.90;;;;;;5053273;28;20527;-47
2022/09/24 02:52:31;;;;;;;10.33;8.33;;;13.40;99.90;;;;;;5053826;28;20445;-48
2022/09/24 02:54:59;;;;;;;8.00;7.20;;;13.60;99.90;;;;;;5054000;28;20438;-47
2022/09/24 02:57:25;;;;;;;8.57;7.63;;;13.70;99.90;;;;;;5053908;28;20408;-46
2022/09/24 02:59:52;;;;;;;8.70;7.70;;;13.30;99.90;;;;;;5053390;28;20447;-48
2022/09/24 03:02:18;;;;;;;7.83;7.03;;;13.30;99.90;;;;;;5053236;28;20448;-47
2022/09/24 03:04:46;;;;;;;8.17;7.37;;;13.30;99.90;;;;;;5052205;28;20479;-47
2022/09/24 03:07:13;;;;;;;13.20;11.13;;;13.10;99.90;;;;;;5053255;28;20471;-47
2022/09/24 03:09:39;;;;;;;9.37;8.57;;;13.20;99.90;;;;;;5052721;28;20951;-48
2022/09/24 03:15:55;;;;;;;10.87;8.27;;;13.30;99.90;;;;;;5053408;28;20406;-47
2022/09/24 03:18:22;;;;;;;11.40;7.90;;;12.70;99.90;;;;;;5052851;28;20440;-49
2022/09/24 03:20:55;;;;;;;9.27;7.30;;;13.20;99.90;;;;;;5052650;28;20526;-47
2022/09/24 03:23:21;;;;;;;10.63;7.37;;;13.40;99.90;;;;;;5053436;28;20529;-48
2022/09/24 03:25:48;;;;;;;10.13;8.43;;;13.00;99.90;;;;;;5053251;28;20442;-48
2022/09/24 03:28:14;;;;;;;8.63;7.83;;;13.20;99.90;;;;;;5053062;28;20456;-46
2022/09/24 03:33:28;;;;;;;9.73;8.73;;;13.30;99.90;;;;;;5052632;28;20937;-48
2022/09/24 03:35:59;;;;;;;10.13;7.93;;;13.50;99.90;;;;;;5052777;28;20435;-48
2022/09/24 03:38:26;;;;;;;10.43;8.60;;;13.20;99.90;;;;;;5052201;28;20443;-48
2022/09/24 03:40:52;;;;;;;8.93;8.07;;;12.80;99.90;;;;;;5052379;28;20457;-48
2022/09/24 03:43:19;;;;;;;10.90;8.30;;;13.00;99.90;;;;;;5052580;28;20489;-47
2022/09/24 03:45:46;;;;;;;9.00;8.20;;;13.10;99.90;;;;;;5051588;28;20439;-48
2022/09/24 03:48:12;;;;;;;9.53;8.07;;;12.90;99.90;;;;;;5052134;28;20448;-47
2022/09/24 03:50:40;;;;;;;9.07;8.27;;;13.10;99.90;;;;;;5052026;28;20460;-48
2022/09/24 03:53:07;;;;;;;9.67;8.77;;;13.30;99.90;;;;;;5052409;28;20435;-48
2022/09/24 03:55:34;;;;;;;9.10;8.20;;;13.20;99.90;;;;;;5052214;28;20438;-47
2022/09/24 03:58:01;;;;;;;9.33;7.20;;;13.30;99.90;;;;;;5034489;28;20487;-48
2022/09/24 04:00:27;;;;;;;8.23;7.30;;;13.10;99.90;;;;;;5051710;28;20448;-47
2022/09/24 04:02:54;;;;;;;9.47;8.50;;;13.10;99.90;;;;;;5051933;28;20852;-47
2022/09/24 04:05:20;;;;;;;8.50;7.80;;;13.10;99.90;;;;;;5052052;28;20471;-48
2022/09/24 04:07:48;;;;;;;8.73;7.80;;;13.30;99.90;;;;;;5052036;28;20430;-47
2022/09/24 04:10:15;;;;;;;12.20;8.50;;;13.50;99.90;;;;;;5051563;28;20458;-47
2022/09/24 04:12:44;;;;;;;10.57;7.90;;;12.90;99.90;;;;;;5052066;28;20435;-47
2022/09/24 04:15:11;;;;;;;9.43;8.53;;;13.30;99.90;;;;;;5051755;28;20495;-48
2022/09/24 04:17:38;;;;;;;8.53;7.73;;;13.40;99.90;;;;;;5033968;28;20870;-48
2022/09/24 04:20:05;;;;;;;9.57;8.67;;;13.10;99.90;;;;;;5051626;28;20821;-47
2022/09/24 04:22:32;;;;;;;11.40;9.07;;;13.10;99.90;;;;;;5092375;23;20484;-45
2022/09/24 04:25:02;;;;;;;11.87;9.00;;;13.10;99.90;;;;;;5071319;28;20860;-44
2022/09/24 04:27:29;;;;;;;8.40;7.67;;;13.20;99.90;;;;;;5071367;28;20433;-44
2022/09/24 04:29:56;;;;;;;9.20;8.30;;;13.20;99.90;;;;;;5070762;28;20490;-45
2022/09/24 04:32:23;;;;;;;9.93;9.03;;;13.00;99.90;;;;;;5070994;28;20439;-44
2022/09/24 04:34:49;;;;;;;9.17;8.37;;;13.10;99.90;;;;;;5071237;28;20436;-48
2022/09/24 04:37:16;;;;;;;8.70;7.90;;;12.80;99.90;;;;;;5071369;28;20765;-46
2022/09/24 04:39:42;;;;;;;11.90;9.20;;;13.20;99.90;;;;;;5070810;28;20443;-45
2022/09/24 04:42:15;;;;;;;8.90;7.83;;;13.10;99.90;;;;;;5071179;28;20462;-44
2022/09/24 04:44:43;;;;;;;9.33;8.40;;;13.60;99.90;;;;;;5070882;28;20479;-47
2022/09/24 04:47:10;;;;;;;9.43;8.43;;;13.10;99.90;;;;;;5070976;28;20548;-45
2022/09/24 04:49:36;;;;;;;9.93;8.53;;;13.10;99.90;;;;;;5070780;28;20436;-45
2022/09/24 04:52:04;;;;;;;9.63;7.80;;;13.00;99.90;;;;;;5053055;28;20990;-44
2022/09/24 04:54:30;;;;;;;8.33;7.53;;;13.10;99.90;;;;;;5071002;28;20444;-45
2022/09/24 04:56:57;;;;;;;13.40;7.70;;;12.90;99.90;;;;;;5073250;28;20443;-44
2022/09/24 04:59:25;;;;;;;10.13;9.20;;;12.90;99.90;;;;;;5074604;28;20440;-44
2022/09/24 05:01:53;;;;;;;9.60;8.70;;;13.00;99.90;;;;;;5074929;28;20429;-45
2022/09/24 05:04:19;;;;;;;12.83;8.03;;;13.10;99.90;;;;;;5074716;28;20548;-45
2022/09/24 05:06:47;;;;;;;11.00;9.80;;;12.90;99.90;;;;;;5074722;28;20822;-47
2022/09/24 05:09:13;;;;;;;8.73;7.57;;;13.50;99.90;;;;;;5074490;28;20446;-44
2022/09/24 05:11:40;;;;;;;18.53;7.70;;;13.00;99.90;;;;;;5074557;28;20469;-47
2022/09/24 05:14:07;;;;;;;9.73;8.83;;;12.50;99.90;;;;;;5075371;28;20432;-46
2022/09/24 05:16:35;;;;;;;10.47;9.30;;;13.20;99.90;;;;;;5074945;28;20486;-45
2022/09/24 05:19:03;;;;;;;10.80;8.10;;;13.00;99.90;;;;;;5074827;28;20440;-45
2022/09/24 05:21:30;;;;;;;9.73;8.60;;;13.10;99.90;;;;;;5074792;28;20470;-45
2022/09/24 05:23:56;;;;;;;8.27;7.33;;;12.90;99.90;;;;;;5074358;28;20476;-47
2022/09/24 05:29:08;;;;;;;9.87;8.77;;;13.10;99.90;;;;;;5074006;28;20799;-45
2022/09/24 05:31:36;;;;;;;9.30;8.40;;;12.90;99.90;;;;;;5074167;28;20463;-44
2022/09/24 05:34:03;;;;;;;9.60;8.60;;;13.60;99.90;;;;;;5074733;28;20469;-44
2022/09/24 05:36:30;;;;;;;10.30;8.13;;;12.70;99.90;;;;;;5074834;28;20432;-45
2022/09/24 05:38:57;;;;;;;8.33;7.40;;;13.30;99.90;;;;;;5073963;28;20456;-47
2022/09/24 05:41:23;;;;;;;7.30;6.60;;;13.10;99.90;;;;;;5074396;28;20452;-45
2022/09/24 05:43:50;;;;;;;9.40;8.33;;;13.10;99.90;;;;;;5055934;28;20486;-44
2022/09/24 05:46:17;;;;;;;9.77;8.83;;;13.60;99.90;;;;;;5074093;28;20429;-45
2022/09/24 05:48:44;;;;;;;8.33;7.50;;;13.10;99.90;;;;;;5073832;28;20466;-46
2022/09/24 05:51:11;;;;;;;9.23;8.20;;;13.40;99.90;;;;;;5073823;28;20955;-45
2022/09/24 05:53:38;;;;;;;9.47;8.10;;;13.10;99.90;;;;;;5073970;28;20526;-44
2022/09/24 05:56:05;;;;;;;9.43;8.10;;;13.10;99.90;;;;;;5074013;28;20428;-45
2022/09/24 05:58:31;;;;;;;11.47;8.73;;;13.30;99.90;;;;;;5073717;28;20493;-47
2022/09/24 06:00:59;;;;;;;8.93;8.17;;;13.50;99.90;;;;;;5074182;28;20453;-46
2022/09/24 06:03:26;;;;;;;12.47;8.80;;;13.20;99.90;;;;;;5073549;28;20492;-46
2022/09/24 06:05:55;;;;;;;9.13;8.33;;;13.20;99.90;;;;;;5073631;28;20476;-45
2022/09/24 06:08:22;;;;;;;7.93;7.23;;;13.30;99.90;;;;;;5072611;28;20941;-51
2022/09/24 06:10:49;;;;;;;9.20;8.40;;;13.30;99.90;;;;;;5073648;28;20456;-45
2022/09/24 06:13:18;;;;;;;9.17;8.17;;;13.20;99.90;;;;;;5073489;28;20447;-44
2022/09/24 06:15:45;;;;;;;9.00;8.27;;;12.90;99.90;;;;;;5073713;28;20444;-45
2022/09/24 06:18:12;;;;;;;9.13;8.33;;;13.10;99.90;;;;;;5073410;28;20437;-44
2022/09/24 06:20:39;;;;;;;11.73;10.10;;;13.20;99.90;;;;;;5072862;28;20453;-45
2022/09/24 06:23:06;;;;;;;9.20;8.40;;;13.70;99.90;;;;;;5073449;28;20433;-44
2022/09/24 06:25:33;;;;;;;9.50;8.60;;;13.20;99.90;;;;;;5073411;28;20487;-45
2022/09/24 06:28:01;;;;;;;11.67;8.97;;;13.50;99.90;;;;;;5073540;28;20697;-44
2022/09/24 06:30:28;;;;;;;13.20;9.23;;;13.50;99.90;;;;;;5072947;28;20432;-44
2022/09/24 06:32:55;;;;;;;9.87;8.87;;;13.50;99.90;;;;;;5073143;28;20444;-44
2022/09/24 06:35:22;;;;;;;15.00;8.20;;;13.60;99.90;;;;;;5072884;28;20791;-44
2022/09/24 06:37:48;;;;;;;9.47;7.90;;;13.50;99.90;;;;;;5073009;28;20936;-45
2022/09/24 06:40:16;;;;;;;12.30;8.20;;;13.50;99.90;;;;;;5072940;28;20711;-45
2022/09/24 06:42:43;;;;;;;8.70;7.90;;;13.50;99.90;;;;;;5072992;28;20457;-45
2022/09/24 06:45:12;;;;;;;11.43;10.33;;;13.90;99.90;;;;;;5055022;28;20899;-45
2022/09/24 06:47:38;;;;;;;9.70;8.70;;;13.60;99.90;;;;;;5072820;28;20503;-45
2022/09/24 06:50:06;;;;;;;9.10;8.30;;;13.60;99.90;;;;;;5072582;28;20460;-45
2022/09/24 06:52:33;;;;;;;9.37;8.40;;;13.60;99.90;;;;;;5072497;28;20460;-46
2022/09/24 06:54:59;;;;;;;8.93;8.10;;;13.70;99.90;;;;;;5054979;28;20801;-45
2022/09/24 06:57:27;;;;;;;8.90;8.00;;;13.80;99.90;;;;;;5054793;28;20457;-45
2022/09/24 06:59:54;;;;;;;9.50;8.60;;;13.80;99.90;;;;;;5072170;28;20447;-44
2022/09/24 07:02:20;;;;;;;9.87;8.83;;;13.80;99.90;;;;;;5072637;28;20457;-44
2022/09/24 07:04:47;;;;;;;12.47;9.13;;;14.20;99.90;;;;;;5072357;28;20567;-46
2022/09/24 07:07:33;;;;;;;11.03;8.00;;;13.90;99.90;;;;;;5072459;28;20456;-44
2022/09/24 07:10:01;;;;;;;9.60;8.13;;;14.00;99.90;;;;;;5072334;28;20433;-45
2022/09/24 07:12:30;;;;;;;10.13;8.20;;;14.00;99.90;;;;;;5072776;28;20515;-44
2022/09/24 07:14:57;;;;;;;10.53;8.07;;;13.80;99.90;;;;;;5072665;28;20854;-45
2022/09/24 07:17:24;;;;;;;13.10;8.87;;;14.10;99.90;;;;;;5072470;28;20433;-44
2022/09/24 07:19:51;;;;;;;9.10;8.20;;;14.00;99.90;;;;;;5072130;28;20433;-45
2022/09/24 07:22:19;;;;;;;11.93;8.33;;;14.20;99.90;;;;;;5072275;28;20500;-46
2022/09/24 07:24:45;;;;;;;8.70;8.00;;;14.10;99.90;;;;;;5071771;28;20487;-46
2022/09/24 07:27:13;;;;;;;8.30;7.50;;;13.90;99.90;;;;;;5072330;28;20440;-45
2022/09/24 07:29:41;;;;;;;11.33;8.00;;;14.30;99.90;;;;;;5071610;28;20433;-48
2022/09/24 07:32:07;;;;;;;8.90;8.10;;;14.40;99.90;;;;;;5072088;28;20459;-45
2022/09/24 07:34:34;;;;;;;8.97;8.07;;;14.20;99.90;;;;;;5071977;28;20897;-44
2022/09/24 07:37:01;;;;;;;10.20;9.27;;;14.30;99.90;;;;;;5071705;28;20432;-45
2022/09/24 07:39:27;;;;;;;9.20;8.30;;;14.30;99.90;;;;;;5071187;28;20445;-45
2022/09/24 07:41:54;;;;;;;10.67;8.63;;;14.30;99.90;;;;;;5071738;28;20808;-45
2022/09/24 07:44:22;;;;;;;9.33;8.43;;;14.70;99.90;;;;;;5072057;28;20448;-46
2022/09/24 07:46:50;;;;;;;10.00;9.10;;;14.50;99.90;;;;;;5071811;28;20433;-44
2022/09/24 07:49:17;;;;;;;10.87;8.50;;;14.90;99.90;;;;;;5071391;28;20454;-45
2022/09/24 07:51:44;;;;;;;9.57;8.67;;;14.60;99.90;;;;;;5071625;28;20531;-45
2022/09/24 07:54:10;;;;;;;9.07;8.27;;;15.10;99.90;;;;;;5071427;28;20936;-46
2022/09/24 07:56:38;;;;;;;10.43;9.43;;;14.60;99.90;;;;;;5071553;28;20432;-44
2022/09/24 07:59:06;;;;;;;11.87;9.13;;;14.80;99.90;;;;;;5071275;28;20440;-46
2022/09/24 08:01:33;;;;;;;10.37;9.20;;;14.80;99.90;;;;;;5071531;28;20856;-47
2022/09/24 08:04:03;;;;;;;10.13;7.77;;;14.80;99.90;;;;;;5071554;28;20958;-44
2022/09/24 08:06:32;;;;;;;9.27;8.43;;;14.90;99.90;;;;;;5070984;28;20547;-45
2022/09/24 08:08:59;;;;;;;9.87;8.97;;;14.70;99.90;;;;;;5071101;28;20452;-46
2022/09/24 08:11:26;;;;;;;10.60;8.83;;;14.90;99.90;;;;;;5071094;28;20461;-45
2022/09/24 08:13:52;;;;;;;10.53;9.40;;;14.70;99.90;;;;;;5071370;28;20940;-45
2022/09/24 08:16:20;;;;;;;10.60;9.60;;;15.00;99.90;;;;;;5071304;28;20432;-46
2022/09/24 08:18:46;;;;;;;11.47;9.73;;;15.00;99.90;;;;;;5071087;28;20436;-45
2022/09/24 08:21:14;;;;;;;9.60;8.67;;;15.00;99.90;;;;;;5070843;28;20476;-46
2022/09/24 08:23:42;;;;;;;14.77;10.43;;;15.00;99.90;;;;;;5070953;28;20426;-46
2022/09/24 08:26:09;;;;;;;11.40;10.20;;;14.90;99.90;;;;;;5071193;28;20483;-46
2022/09/24 08:28:36;;;;;;;9.10;8.20;;;14.60;99.90;;;;;;5071003;28;20441;-47
2022/09/24 08:31:07;;;;;;;10.20;9.20;;;14.90;99.90;;;;;;5070535;28;20449;-45
2022/09/24 08:33:34;;;;;;;10.70;9.60;;;15.30;99.90;;;;;;5071247;28;20437;-46
2022/09/24 08:36:02;;;;;;;10.13;9.13;;;15.30;99.90;;;;;;5071193;28;20456;-46
2022/09/24 08:38:30;;;;;;;10.37;9.17;;;15.10;99.90;;;;;;5070528;28;20802;-48
2022/09/24 08:41:08;;;;;;;10.80;9.80;;;15.40;99.90;;;;;;5071276;28;20529;-48
2022/09/24 08:43:42;;;;;;;9.40;8.60;;;15.30;99.90;;;;;;5071240;28;20466;-46
2022/09/24 08:49:03;;;;;;;10.90;9.60;;;15.50;99.90;;;;;;5070568;28;20433;-45
2022/09/24 08:51:35;;;;;;;10.30;9.30;;;15.60;99.90;;;;;;5071491;28;20465;-48
2022/09/24 08:54:08;;;;;;;13.73;9.50;;;15.70;99.90;;;;;;5071199;28;20430;-45
2022/09/24 08:56:37;;;;;;;9.90;9.00;;;15.80;99.90;;;;;;5070954;28;20429;-46
2022/09/24 08:59:15;;;;;;;10.40;9.40;;;15.80;99.90;;;;;;5070799;28;20431;-48
2022/09/24 09:01:46;;;;;;;10.80;9.70;;;15.80;99.90;;;;;;5070795;28;20457;-45
2022/09/24 09:04:24;;;;;;;14.53;9.27;;;15.60;99.70;;;;;;5071205;28;20453;-44
2022/09/24 09:07:08;;;;;;;11.40;10.10;;;15.90;99.80;;;;;;5070787;28;20486;-45
2022/09/24 09:09:44;;;;;;;11.77;10.10;;;15.80;99.60;;;;;;5070564;28;20425;-46
2022/09/24 09:12:15;;;;;;;12.53;9.60;;;16.00;99.50;;;;;;5070589;28;20556;-45
2022/09/24 09:14:45;;;;;;;11.13;10.00;;;16.10;99.50;;;;;;5070478;28;20441;-44
2022/09/24 09:17:31;;;;;;;10.60;9.50;;;16.20;99.40;;;;;;5070722;28;20438;-48
2022/09/24 09:20:20;;;;;;;10.77;9.77;;;16.30;99.10;;;;;;5070443;28;20438;-45
2022/09/24 09:22:52;;;;;;;10.30;9.20;;;16.30;98.80;;;;;;5052759;28;20466;-44
2022/09/24 09:25:23;;;;;;;11.47;9.47;;;16.40;98.80;;;;;;5070595;28;20555;-45
2022/09/24 09:27:59;;;;;;;12.27;9.70;;;16.00;98.50;;;;;;5070525;28;20560;-45
2022/09/24 09:30:26;;;;;;;12.20;10.00;;;16.50;98.70;;;;;;5070745;28;20431;-45
2022/09/24 09:33:08;;;;;;;12.63;8.93;;;16.30;98.30;;;;;;5071058;28;20437;-47
2022/09/24 09:35:42;;;;;;;9.73;8.83;;;17.00;98.30;;;;;;5071353;28;20550;-46
2022/09/24 09:38:22;;;;;;;9.77;8.97;;;16.30;97.90;;;;;;5072005;28;20427;-46
2022/09/24 09:40:57;;;;;;;10.20;9.20;;;16.80;98.00;;;;;;5072395;28;20494;-46
2022/09/24 09:43:25;;;;;;;11.57;10.33;;;16.70;97.80;;;;;;5072468;28;20461;-45
2022/09/24 09:46:01;;;;;;;10.23;9.00;;;16.70;97.60;;;;;;5075155;28;20560;-46
2022/09/24 09:48:31;;;;;;;10.53;9.10;;;16.80;97.20;;;;;;5075064;28;20431;-46
2022/09/24 09:51:03;;;;;;;10.30;9.00;;;17.30;97.50;;;;;;5074646;28;20454;-45
2022/09/24 09:53:31;;;;;;;9.17;8.30;;;17.10;97.30;;;;;;5075581;28;20928;-45
2022/09/24 09:56:01;;;;;;;9.33;8.30;;;17.20;97.20;;;;;;5075005;28;20904;-46
2022/09/24 09:58:30;;;;;;;8.57;7.77;;;17.20;96.80;;;;;;5075072;28;20507;-45
2022/09/24 10:01:06;;;;;;;9.20;8.40;;;17.20;96.40;;;;;;5074221;28;20453;-47
2022/09/24 10:03:46;;;;;;;9.53;8.23;;;17.20;96.10;;;;;;5073558;28;20773;-45
2022/09/24 10:06:14;;;;;;;9.53;8.73;;;17.30;96.30;;;;;;5073659;28;20502;-46
2022/09/24 10:08:41;;;;;;;8.50;7.80;;;17.20;96.10;;;;;;5073241;28;20431;-48
2022/09/24 10:11:15;;;;;;;11.53;8.67;;;17.30;96.10;;;;;;5073390;28;20474;-45
2022/09/24 10:13:43;;;;;;;9.33;8.30;;;17.40;96.10;;;;;;5073687;28;20448;-46
2022/09/24 10:16:14;;;;;;;9.37;8.53;;;17.20;95.90;;;;;;5074181;28;20427;-47
2022/09/24 10:18:46;;;;;;;10.27;8.70;;;17.40;96.10;;;;;;5056217;28;20542;-46
2022/09/24 10:21:15;;;;;;;7.70;7.10;;;17.40;95.90;;;;;;5074409;28;20483;-47
2022/09/24 10:23:45;;;;;;;10.53;7.83;;;17.40;95.70;;;;;;5074716;28;20927;-47
2022/09/24 10:26:13;;;;;;;8.77;7.97;;;17.40;95.70;;;;;;5074272;28;20974;-46
2022/09/24 10:31:34;;;;;;;9.50;8.50;;;17.30;95.40;;;;;;5073693;28;20790;-47
2022/09/24 10:34:01;;;;;;;9.10;8.30;;;17.50;95.50;;;;;;5074294;28;20432;-47
2022/09/24 10:36:31;;;;;;;9.07;8.13;;;17.40;95.40;;;;;;5074191;28;20437;-46
2022/09/24 10:39:11;;;;;;;9.80;8.30;;;17.60;95.40;;;;;;5073540;28;20434;-46
2022/09/24 10:41:46;;;;;;;8.37;7.57;;;17.40;95.30;;;;;;5073843;28;20467;-46
2022/09/24 10:44:13;;;;;;;9.27;8.47;;;17.70;95.40;;;;;;5073659;28;20433;-48
2022/09/24 10:46:54;;;;;;;7.90;7.20;;;17.70;95.40;;;;;;5073923;28;20467;-46
2022/09/24 10:49:34;;;;;;;8.93;8.10;;;17.50;95.30;;;;;;5073075;28;20452;-47
2022/09/24 10:52:09;;;;;;;7.60;6.80;;;17.40;95.00;;;;;;5073236;28;20494;-48
2022/09/24 10:54:48;;;;;;;9.63;7.77;;;17.50;95.00;;;;;;5072147;28;20423;-47
2022/09/24 10:57:25;;;;;;;8.87;7.97;;;17.60;95.00;;;;;;5072399;28;20443;-47
2022/09/24 11:00:02;;;;;;;7.47;6.83;;;17.60;95.10;;;;;;5072188;28;20501;-47
2022/09/24 11:03:06;;;;;;;9.13;8.10;;;17.60;95.10;;;;;;5072453;28;20462;-46
2022/09/24 11:05:37;;;;;;;8.80;7.90;;;17.50;95.00;;;;;;5071839;28;20472;-47
2022/09/24 11:08:12;;;;;;;7.50;6.80;;;17.70;95.20;;;;;;5072387;28;20879;-47
2022/09/24 11:11:03;;;;;;;7.57;6.70;;;18.10;95.20;;;;;;5071800;28;20531;-48
2022/09/24 11:13:40;;;;;;;10.37;6.67;;;17.80;94.90;;;;;;5072011;28;20536;-47
2022/09/24 11:16:34;;;;;;;7.90;6.53;;;18.00;94.90;;;;;;5071842;28;20431;-47
2022/09/24 11:19:03;;;;;;;10.53;6.20;;;18.10;94.80;;;;;;5071684;28;20440;-48
2022/09/24 11:21:42;;;;;;;6.97;6.37;;;18.00;94.70;;;;;;5072311;28;20470;-47
2022/09/24 11:24:21;;;;;;;6.10;5.60;;;18.00;94.50;;;;;;5071714;28;20446;-46
2022/09/24 11:26:58;;;;;;;6.83;6.07;;;18.50;94.30;;;;;;5071206;28;20593;-47
2022/09/24 11:29:42;;;;;;;6.93;6.10;;;18.00;93.60;;;;;;5071242;28;20925;-46
2022/09/24 11:32:18;;;;;;;6.87;4.90;;;18.50;93.80;;;;;;5071213;28;20538;-47
2022/09/24 11:35:02;;;;;;;8.03;7.23;;;18.10;93.30;;;;;;5071915;28;20429;-50
2022/09/24 11:37:44;;;;;;;6.47;5.57;;;18.20;93.30;;;;;;5071800;28;20481;-48
2022/09/24 11:40:29;;;;;;;6.03;5.03;;;18.40;93.10;;;;;;5071122;28;20463;-47
2022/09/24 11:43:08;;;;;;;6.80;4.83;;;18.50;93.00;;;;;;5071465;28;20944;-47
2022/09/24 11:45:57;;;;;;;6.70;6.00;;;18.60;93.10;;;;;;5071908;28;20432;-46
2022/09/24 11:48:43;;;;;;;6.83;6.20;;;18.60;92.80;;;;;;5053000;28;20817;-48
2022/09/24 11:51:20;;;;;;;6.30;5.80;;;18.50;92.50;;;;;;5071093;28;20813;-48
2022/09/24 11:53:54;;;;;;;6.70;6.10;;;18.50;92.30;;;;;;5071641;28;20466;-48
2022/09/24 11:56:24;;;;;;;6.57;5.97;;;18.90;92.30;;;;;;5071019;28;20434;-48
2022/09/24 11:58:59;;;;;;;6.60;5.97;;;18.90;92.10;;;;;;5070849;28;20944;-48
2022/09/24 12:01:31;;;;;;;7.10;5.60;;;18.90;92.10;;;;;;5071096;28;20544;-47
2022/09/24 12:04:02;;;;;;;8.87;5.53;;;19.00;92.10;;;;;;5071276;28;20624;-47
2022/09/24 12:06:33;;;;;;;6.73;6.00;;;19.10;92.00;;;;;;5052269;28;20498;-46
2022/09/24 12:09:09;;;;;;;8.73;6.10;;;19.20;91.90;;;;;;5070389;28;20455;-47
2022/09/24 12:11:40;;;;;;;6.20;5.70;;;19.10;91.80;;;;;;5070903;28;20463;-52
2022/09/24 12:14:14;;;;;;;5.30;4.80;;;19.20;91.80;;;;;;5071156;28;20540;-48
2022/09/24 12:16:46;;;;;;;6.10;5.53;;;19.20;91.60;;;;;;5071555;28;20787;-48
2022/09/24 12:19:21;;;;;;;9.83;7.00;;;18.90;91.60;;;;;;5053684;28;20504;-48
2022/09/24 12:21:51;;;;;;;7.10;6.40;;;19.10;91.90;;;;;;5070582;28;21027;-46
2022/09/24 12:24:23;;;;;;;9.33;5.83;;;19.30;92.30;;;;;;5071002;28;20426;-46
2022/09/24 12:26:54;;;;;;;7.93;6.77;;;19.20;92.60;;;;;;5070897;28;21020;-48
2022/09/24 12:35:31;;;;;;;9.63;6.50;;;19.20;93.40;;;;;;5070660;28;20447;-48
2022/09/24 12:38:03;;;;;;;7.30;6.60;;;19.10;93.50;;;;;;5070680;28;20569;-48
2022/09/24 12:41:04;;;;;;;11.40;6.93;;;19.20;94.00;;;;;;5069648;28;20528;-48
2022/09/24 12:43:38;;;;;;;9.90;6.90;;;19.10;93.80;;;;;;5070908;28;20433;-47
2022/09/24 12:46:07;;;;;;;10.20;8.80;;;19.10;94.20;;;;;;5070794;28;20458;-48
2022/09/24 12:48:38;;;;;;;7.47;6.53;;;19.10;94.40;;;;;;5070445;28;20493;-48
2022/09/24 12:51:09;;;;;;;9.00;7.00;;;19.00;94.70;;;;;;5070777;28;20478;-46
2022/09/24 12:53:38;;;;;;;12.80;11.60;;;19.10;94.50;;;;;;5070409;28;20883;-47
2022/09/24 12:56:08;;;;;;;8.47;6.93;;;19.20;94.70;;;;;;5052445;28;20450;-47
2022/09/24 12:58:38;;;;;;;7.27;6.60;;;19.10;94.90;;;;;;5070357;28;20848;-48
2022/09/24 13:01:08;;;;;;;8.40;5.67;;;18.90;94.20;;;;;;5070958;28;20929;-47
2022/09/24 13:03:38;;;;;;;7.77;6.03;;;19.20;94.40;;;;;;5052589;28;20898;-47
2022/09/24 13:06:21;;;;;;;9.10;7.10;;;19.40;94.20;;;;;;5070499;28;20437;-47
2022/09/24 13:08:49;;;;;;;7.20;6.50;;;19.40;94.30;;;;;;5052152;28;20442;-48
2022/09/24 13:11:29;;;;;;;6.27;5.67;;;19.30;94.30;;;;;;5070492;28;20546;-48
2022/09/24 13:14:04;;;;;;;11.60;9.67;;;19.20;93.90;;;;;;5070326;28;20517;-47
2022/09/24 13:16:31;;;;;;;8.57;7.77;;;19.50;93.50;;;;;;5070880;28;20884;-48
2022/09/24 13:19:01;;;;;;;7.33;5.60;;;19.40;93.30;;;;;;5055785;28;20449;-48
2022/09/24 13:21:29;;;;;;;9.40;6.70;;;19.40;93.20;;;;;;5073996;28;20483;-47
2022/09/24 13:23:57;;;;;;;7.40;6.70;;;19.60;93.20;;;;;;5074482;28;20433;-49
2022/09/24 13:26:33;;;;;;;9.17;7.70;;;19.60;93.20;;;;;;5074049;28;20526;-46